Time;durP1;ratioP1;P1;durP2;ratioP2;P2;SDS_P1;SDS_P2;PMS_P1;PMS_P2;Temp;Humidity;BMP_temperature;BMP_pressure;BME280_temperature;BME280_humidity;BME280_pressure;Samples;Min_cycle;Max_cycle;Signal;HPM_P1;HPM_P2
2024/04/04 00:01:33;;;;;;;1999.90;999.90;;;13.50;99.90;;;;;;5034431;28;20029;-74
2024/04/04 00:03:58;;;;;;;1999.90;999.90;;;13.60;99.90;;;;;;5034522;28;20026;-67
2024/04/04 00:06:24;;;;;;;1999.90;999.90;;;13.60;99.90;;;;;;5033796;28;20516;-74
2024/04/04 00:08:49;;;;;;;1999.90;999.90;;;13.60;99.90;;;;;;5033989;28;20071;-68
2024/04/04 00:11:17;;;;;;;1999.90;999.90;;;13.70;99.90;;;;;;5034197;28;20064;-74
2024/04/04 00:13:43;;;;;;;1999.90;999.90;;;13.70;99.90;;;;;;5034138;28;20119;-74
2024/04/04 00:16:09;;;;;;;1999.90;999.90;;;13.70;99.90;;;;;;5034192;28;20477;-67
2024/04/04 00:18:34;;;;;;;1999.90;999.90;;;13.70;99.90;;;;;;5033770;28;20053;-74
2024/04/04 00:21:00;;;;;;;1999.90;999.90;;;13.80;99.90;;;;;;5033808;28;20040;-67
2024/04/04 00:23:26;;;;;;;1999.90;999.90;;;13.80;99.90;;;;;;5032714;28;20080;-74
2024/04/04 00:25:51;;;;;;;1999.90;999.90;;;13.80;99.90;;;;;;5033848;28;20022;-67
2024/04/04 00:28:17;;;;;;;1999.90;999.90;;;13.90;99.90;;;;;;5033773;28;20036;-67
2024/04/04 00:30:42;;;;;;;1999.90;999.90;;;13.80;99.90;;;;;;5033472;28;20451;-74
2024/04/04 00:33:08;;;;;;;1999.90;999.90;;;13.90;99.90;;;;;;5033459;28;20036;-74
2024/04/04 00:35:34;;;;;;;1999.90;999.90;;;13.90;99.90;;;;;;5033696;28;20079;-67
2024/04/04 00:37:59;;;;;;;1999.90;999.90;;;13.90;99.90;;;;;;5033695;28;20522;-75
2024/04/04 00:40:25;;;;;;;1999.90;999.90;;;13.90;99.90;;;;;;5033654;28;20033;-68
2024/04/04 00:42:51;;;;;;;1999.90;999.90;;;14.00;99.90;;;;;;5033507;28;20079;-68
2024/04/04 00:45:17;;;;;;;1999.90;999.90;;;14.00;99.90;;;;;;5033814;28;20397;-68
2024/04/04 00:47:45;;;;;;;1999.90;999.90;;;14.00;99.90;;;;;;5033271;28;20040;-67
2024/04/04 00:50:12;;;;;;;1999.90;999.90;;;14.00;99.90;;;;;;5033583;28;20079;-74
2024/04/04 00:52:38;;;;;;;1999.90;999.90;;;13.90;99.90;;;;;;5033370;28;20025;-74
2024/04/04 00:55:04;;;;;;;1999.90;999.90;;;13.90;99.90;;;;;;5032490;28;20021;-74
2024/04/04 00:57:30;;;;;;;1999.90;999.90;;;13.90;99.90;;;;;;5033342;28;20022;-68
2024/04/04 00:59:56;;;;;;;1999.90;999.90;;;13.80;99.90;;;;;;5032442;28;20028;-75
2024/04/04 01:02:22;;;;;;;1999.90;999.90;;;13.80;99.90;;;;;;5033096;28;20100;-68
2024/04/04 01:04:48;;;;;;;1999.90;999.90;;;13.80;99.90;;;;;;5032707;28;20129;-75
2024/04/04 01:07:14;;;;;;;1999.90;999.90;;;13.80;99.90;;;;;;5032839;28;20495;-75
2024/04/04 01:09:40;;;;;;;1999.90;999.90;;;13.80;99.90;;;;;;5032916;28;20049;-68
2024/04/04 01:12:06;;;;;;;1999.90;999.90;;;13.80;99.90;;;;;;5033198;28;20439;-74
2024/04/04 01:14:32;;;;;;;1999.90;999.90;;;13.90;99.90;;;;;;5033014;28;20024;-67
2024/04/04 01:16:58;;;;;;;1999.90;999.90;;;13.90;99.90;;;;;;5033097;28;20396;-75
2024/04/04 01:19:23;;;;;;;1999.90;999.90;;;13.90;99.90;;;;;;5032715;28;20053;-75
2024/04/04 01:21:49;;;;;;;1999.90;999.90;;;13.80;99.90;;;;;;5032635;28;20037;-75
2024/04/04 01:24:18;;;;;;;1999.90;999.90;;;13.80;99.90;;;;;;5032494;28;20037;-74
2024/04/04 01:26:43;;;;;;;1999.90;999.90;;;13.80;99.90;;;;;;5032805;28;20469;-74
2024/04/04 01:29:09;;;;;;;1999.90;999.90;;;13.80;99.90;;;;;;5032710;28;20636;-74
2024/04/04 01:31:35;;;;;;;1999.90;999.90;;;13.80;99.90;;;;;;5032825;28;20407;-74
2024/04/04 01:34:01;;;;;;;1999.90;999.90;;;13.80;99.90;;;;;;5032720;28;20511;-67
2024/04/04 01:36:26;;;;;;;1999.90;999.90;;;13.80;99.90;;;;;;5032514;28;20080;-67
2024/04/04 01:38:52;;;;;;;1999.90;999.90;;;13.70;99.90;;;;;;5032571;28;20032;-67
2024/04/04 01:41:18;;;;;;;1999.90;999.90;;;13.70;99.90;;;;;;5032840;28;20095;-74
2024/04/04 01:43:44;;;;;;;1999.90;999.90;;;13.70;99.90;;;;;;5032857;28;20480;-67
2024/04/04 01:46:10;;;;;;;1999.90;999.90;;;13.60;99.90;;;;;;5032283;28;20041;-68
2024/04/04 01:48:36;;;;;;;1999.90;999.90;;;13.60;99.90;;;;;;5031692;28;20022;-68
2024/04/04 01:51:01;;;;;;;1999.90;999.90;;;13.60;99.90;;;;;;5032385;28;20103;-74
2024/04/04 01:53:27;;;;;;;1999.90;999.90;;;13.60;99.90;;;;;;5032605;28;20028;-74
2024/04/04 01:55:58;;;;;;;1999.90;999.90;;;13.50;99.90;;;;;;5032514;28;20037;-74
2024/04/04 01:58:24;;;;;;;1999.90;999.90;;;13.50;99.90;;;;;;5032605;28;20099;-74
2024/04/04 02:00:50;;;;;;;1999.90;999.90;;;13.50;99.90;;;;;;5031878;28;20026;-67
2024/04/04 02:03:15;;;;;;;1999.90;999.90;;;13.50;99.90;;;;;;5032449;28;20099;-68
2024/04/04 02:05:41;;;;;;;1999.90;999.90;;;13.50;99.90;;;;;;5032368;28;20032;-67
2024/04/04 02:08:07;;;;;;;1999.90;999.90;;;13.50;99.90;;;;;;5032308;28;20431;-74
2024/04/04 02:10:33;;;;;;;1999.90;999.90;;;13.50;99.90;;;;;;5032116;28;20040;-67
2024/04/04 02:12:59;;;;;;;1999.90;999.90;;;13.40;99.90;;;;;;5036486;28;20036;-68
2024/04/04 02:15:26;;;;;;;1999.90;999.90;;;13.40;99.90;;;;;;5036556;28;20026;-74
2024/04/04 02:17:52;;;;;;;1999.90;999.90;;;13.40;99.90;;;;;;5036175;28;20029;-67
2024/04/04 02:20:19;;;;;;;1999.90;999.90;;;13.50;99.90;;;;;;5036236;28;20108;-74
2024/04/04 02:22:45;;;;;;;1999.90;999.90;;;13.50;99.90;;;;;;5035806;28;20025;-67
2024/04/04 02:25:10;;;;;;;1999.90;999.90;;;13.40;99.90;;;;;;5036096;28;20029;-74
2024/04/04 02:27:36;;;;;;;1999.90;999.90;;;13.40;99.90;;;;;;5036477;28;20037;-74
2024/04/04 02:30:02;;;;;;;1999.90;999.90;;;13.40;99.90;;;;;;5035758;28;20033;-68
2024/04/04 02:32:29;;;;;;;1999.90;999.90;;;13.40;99.90;;;;;;5035716;28;20495;-68
2024/04/04 02:34:55;;;;;;;1999.90;999.90;;;13.40;99.90;;;;;;5036050;28;20029;-74
2024/04/04 02:37:21;;;;;;;1999.90;999.90;;;13.30;99.90;;;;;;5036050;28;20476;-68
2024/04/04 02:39:46;;;;;;;1999.90;999.90;;;13.30;99.90;;;;;;5036150;28;20055;-67
2024/04/04 02:42:12;;;;;;;1999.90;999.90;;;13.30;99.90;;;;;;5035700;28;20030;-67
2024/04/04 02:44:38;;;;;;;1999.90;999.90;;;13.30;99.90;;;;;;5035876;28;20488;-67
2024/04/04 02:47:04;;;;;;;1999.90;999.90;;;13.30;99.90;;;;;;5035593;28;20480;-74
2024/04/04 02:49:30;;;;;;;1999.90;999.90;;;13.30;99.90;;;;;;5035931;28;20104;-74
2024/04/04 02:51:57;;;;;;;1999.90;999.90;;;13.30;99.90;;;;;;5035477;28;20029;-74
2024/04/04 02:54:22;;;;;;;1999.90;999.90;;;13.30;99.90;;;;;;5034566;28;20083;-73
2024/04/04 02:56:48;;;;;;;1999.90;999.90;;;13.30;99.90;;;;;;5034113;28;20439;-67
2024/04/04 02:59:14;;;;;;;1999.90;999.90;;;13.30;99.90;;;;;;5035509;28;20080;-67
2024/04/04 03:01:39;;;;;;;1999.90;999.90;;;13.30;99.90;;;;;;5035507;28;20066;-74
2024/04/04 03:04:06;;;;;;;1999.90;999.90;;;13.30;99.90;;;;;;5035578;28;20421;-74
2024/04/04 03:06:33;;;;;;;1999.90;999.90;;;13.30;99.90;;;;;;5035099;28;20432;-67
2024/04/04 03:08:58;;;;;;;1999.90;999.90;;;13.30;99.90;;;;;;5035187;28;20029;-67
2024/04/04 03:11:24;;;;;;;1999.90;999.90;;;13.30;99.90;;;;;;5035103;28;20038;-67
2024/04/04 03:13:50;;;;;;;1999.90;999.90;;;13.30;99.90;;;;;;5035271;28;20091;-67
2024/04/04 03:16:15;;;;;;;1999.90;999.90;;;13.30;99.90;;;;;;5035222;28;20029;-67
2024/04/04 03:18:41;;;;;;;1999.90;999.90;;;13.30;99.90;;;;;;5034225;28;20578;-67
2024/04/04 03:21:06;;;;;;;1999.90;999.90;;;13.30;99.90;;;;;;5035070;28;20427;-67
2024/04/04 03:23:33;;;;;;;1999.90;999.90;;;13.30;99.90;;;;;;5034103;28;20134;-67
2024/04/04 03:25:59;;;;;;;1999.90;999.90;;;13.30;99.90;;;;;;5034598;28;20033;-74
2024/04/04 03:28:25;;;;;;;1999.90;999.90;;;13.20;99.90;;;;;;5034586;28;20404;-68
2024/04/04 03:30:51;;;;;;;1999.90;999.90;;;13.30;99.90;;;;;;5034986;28;20562;-67
2024/04/04 03:33:16;;;;;;;1999.90;999.90;;;13.20;99.90;;;;;;5034565;28;20029;-74
2024/04/04 03:35:42;;;;;;;1999.90;999.90;;;13.20;99.90;;;;;;5034389;28;20026;-67
2024/04/04 03:38:08;;;;;;;1999.90;999.90;;;13.30;99.90;;;;;;5035014;28;20032;-67
2024/04/04 03:40:33;;;;;;;1999.90;999.90;;;13.30;99.90;;;;;;5034751;28;20079;-74
2024/04/04 03:43:02;;;;;;;1999.90;999.90;;;13.30;99.90;;;;;;5034949;28;20499;-74
2024/04/04 03:45:28;;;;;;;1999.90;999.90;;;13.30;99.90;;;;;;5034683;28;20109;-74
2024/04/04 03:47:54;;;;;;;1999.90;999.90;;;13.30;99.90;;;;;;5034398;28;20431;-67
2024/04/04 03:50:19;;;;;;;1999.90;999.90;;;13.30;99.90;;;;;;5034654;28;20029;-67
2024/04/04 03:52:45;;;;;;;1999.90;999.90;;;13.30;99.90;;;;;;5034367;28;20029;-74
2024/04/04 03:55:11;;;;;;;1999.90;999.90;;;13.30;99.90;;;;;;5034693;28;20029;-74
2024/04/04 03:57:37;;;;;;;1999.90;999.90;;;13.40;99.90;;;;;;5034367;28;20033;-67
2024/04/04 04:00:06;;;;;;;1999.90;999.90;;;13.40;99.90;;;;;;5033430;28;20167;-74
2024/04/04 04:02:32;;;;;;;1999.90;999.90;;;13.40;99.90;;;;;;5034493;28;20033;-67
2024/04/04 04:04:57;;;;;;;1999.90;999.90;;;13.50;99.90;;;;;;5034297;28;20044;-74
2024/04/04 04:07:23;;;;;;;1999.90;999.90;;;13.50;99.90;;;;;;5034199;28;20488;-74
2024/04/04 04:09:48;;;;;;;1999.90;999.90;;;13.50;99.90;;;;;;5033883;28;20026;-67
2024/04/04 04:12:14;;;;;;;1999.90;999.90;;;13.50;99.90;;;;;;5033962;28;20021;-74
2024/04/04 04:14:40;;;;;;;1999.90;999.90;;;13.50;99.90;;;;;;5034155;28;20072;-74
2024/04/04 04:17:05;;;;;;;1999.90;999.90;;;13.60;99.90;;;;;;5033900;28;20029;-67
2024/04/04 04:19:31;;;;;;;1999.90;999.90;;;13.60;99.90;;;;;;5034009;28;20111;-74
2024/04/04 04:21:56;;;;;;;1999.90;999.90;;;13.70;99.90;;;;;;5033775;28;20099;-73
2024/04/04 04:24:22;;;;;;;1999.90;999.90;;;13.70;99.90;;;;;;5033569;28;20459;-74
2024/04/04 04:26:49;;;;;;;1999.90;999.90;;;13.70;99.90;;;;;;5033697;28;20026;-74
2024/04/04 04:29:17;;;;;;;1999.90;999.90;;;13.80;99.90;;;;;;5032760;28;20488;-67
2024/04/04 04:31:43;;;;;;;1999.90;999.90;;;13.90;99.90;;;;;;5033779;28;20029;-74
2024/04/04 04:34:09;;;;;;;1999.90;999.90;;;13.90;99.90;;;;;;5033186;28;20025;-74
2024/04/04 04:36:55;;;;;;;1999.90;999.90;;;13.90;99.90;;;;;;5033581;28;20025;-74
2024/04/04 04:39:21;;;;;;;1999.90;999.90;;;14.00;99.90;;;;;;5033921;28;20119;-74
2024/04/04 04:41:47;;;;;;;1999.90;999.90;;;14.00;99.90;;;;;;5033097;28;20025;-67
2024/04/04 04:44:13;;;;;;;1999.90;999.90;;;14.00;99.90;;;;;;5033657;28;20025;-74
2024/04/04 04:46:39;;;;;;;1999.90;999.90;;;14.00;99.90;;;;;;5033392;28;20025;-73
2024/04/04 04:49:04;;;;;;;1999.90;999.90;;;13.90;99.90;;;;;;5033659;28;20494;-67
2024/04/04 04:51:30;;;;;;;1999.90;999.90;;;13.90;99.90;;;;;;5033304;28;20040;-74
2024/04/04 04:53:56;;;;;;;1999.90;999.90;;;13.90;99.90;;;;;;5032544;28;20025;-67
2024/04/04 04:56:22;;;;;;;1999.90;999.90;;;13.90;99.90;;;;;;5033168;28;20056;-73
2024/04/04 04:58:48;;;;;;;1999.90;999.90;;;13.90;99.90;;;;;;5033197;28;20053;-67
2024/04/04 05:01:13;;;;;;;1999.90;999.90;;;13.90;99.90;;;;;;5033141;28;20058;-74
2024/04/04 05:03:39;;;;;;;1999.90;999.90;;;13.90;99.90;;;;;;5030847;28;20075;-67
2024/04/04 05:06:07;;;;;;;1999.90;999.90;;;13.90;99.90;;;;;;5033093;28;20087;-74
2024/04/04 05:08:35;;;;;;;1999.90;999.90;;;13.90;99.90;;;;;;5032675;28;20080;-75
2024/04/04 05:11:01;;;;;;;1999.90;999.90;;;13.90;99.90;;;;;;5045059;28;20086;-73
2024/04/04 05:13:29;;;;;;;1999.90;999.90;;;13.90;99.90;;;;;;5052804;28;20025;-74
2024/04/04 05:15:55;;;;;;;1999.90;999.90;;;14.10;99.90;;;;;;5052732;28;20025;-68
2024/04/04 05:18:22;;;;;;;1999.90;999.90;;;14.20;99.90;;;;;;5052627;28;20049;-68
2024/04/04 05:20:48;;;;;;;1999.90;999.90;;;14.20;99.90;;;;;;5052675;28;20037;-67
2024/04/04 05:23:13;;;;;;;1999.90;999.90;;;14.30;99.90;;;;;;5034379;28;20104;-67
2024/04/04 05:25:39;;;;;;;1999.90;999.90;;;14.30;99.90;;;;;;5032817;28;20044;-74
2024/04/04 05:28:08;;;;;;;1999.90;999.90;;;14.30;99.90;;;;;;5032495;28;20458;-67
2024/04/04 05:30:34;;;;;;;1999.90;999.90;;;14.40;99.90;;;;;;5038812;28;20059;-74
2024/04/04 05:33:01;;;;;;;1999.90;999.90;;;14.40;99.90;;;;;;5028281;28;20489;-68
2024/04/04 05:35:27;;;;;;;1999.90;999.90;;;14.30;99.90;;;;;;5032355;28;20474;-74
2024/04/04 05:37:53;;;;;;;1999.90;999.90;;;14.30;99.90;;;;;;5032284;28;20017;-75
2024/04/04 05:40:18;;;;;;;1999.90;999.90;;;14.20;99.90;;;;;;5031173;28;20051;-74
2024/04/04 05:42:44;;;;;;;1999.90;999.90;;;14.10;99.90;;;;;;5032198;28;20047;-68
2024/04/04 05:45:10;;;;;;;1999.90;999.90;;;14.00;99.90;;;;;;5035275;28;20029;-67
2024/04/04 05:47:35;;;;;;;1999.90;999.90;;;14.10;99.90;;;;;;5051447;28;20036;-67
2024/04/04 05:50:01;;;;;;;1999.90;999.90;;;14.10;99.90;;;;;;5044636;28;20495;-68
2024/04/04 05:52:27;;;;;;;1999.90;999.90;;;14.10;99.90;;;;;;5031861;28;20036;-68
2024/04/04 05:54:53;;;;;;;1999.90;999.90;;;14.10;99.90;;;;;;5030510;28;20029;-74
2024/04/04 05:57:19;;;;;;;1999.90;999.90;;;14.20;99.90;;;;;;5035788;28;20176;-67
2024/04/04 05:59:46;;;;;;;1999.90;999.90;;;14.20;99.90;;;;;;5031599;28;20100;-67
2024/04/04 06:02:11;;;;;;;1999.90;999.90;;;14.40;99.90;;;;;;5032040;28;20037;-67
2024/04/04 06:04:37;;;;;;;1999.90;999.90;;;14.50;99.90;;;;;;5031448;28;20035;-67
2024/04/04 06:07:03;;;;;;;1999.90;999.90;;;14.60;99.90;;;;;;5031870;28;20041;-67
2024/04/04 06:09:29;;;;;;;1999.90;999.90;;;14.60;99.90;;;;;;5032225;28;20037;-74
2024/04/04 06:11:55;;;;;;;1999.90;999.90;;;14.60;99.90;;;;;;5018652;28;20400;-72
2024/04/04 06:14:23;;;;;;;1999.90;999.90;;;14.50;99.90;;;;;;5029562;28;20045;-67
2024/04/04 06:16:49;;;;;;;1999.90;999.90;;;14.50;99.90;;;;;;5031663;28;20022;-67
2024/04/04 06:19:14;;;;;;;1999.90;999.90;;;14.60;99.90;;;;;;5031118;28;20131;-74
2024/04/04 06:21:40;;;;;;;1999.90;999.90;;;14.50;99.90;;;;;;5030566;28;20056;-67
2024/04/04 06:24:06;;;;;;;1999.90;999.90;;;14.60;99.90;;;;;;5030224;28;20488;-68
2024/04/04 06:26:31;;;;;;;1999.90;999.90;;;14.50;99.90;;;;;;5032006;28;20022;-67
2024/04/04 06:28:57;;;;;;;1999.90;999.90;;;14.50;99.90;;;;;;5030242;28;20018;-67
2024/04/04 06:31:24;;;;;;;1999.90;999.90;;;14.60;99.90;;;;;;5030033;28;20037;-74
2024/04/04 06:33:50;;;;;;;1999.90;999.90;;;14.60;99.90;;;;;;5027382;28;20017;-67
2024/04/04 06:36:18;;;;;;;1999.90;999.90;;;14.70;99.90;;;;;;5028167;28;20052;-67
2024/04/04 06:38:44;;;;;;;1999.90;999.90;;;14.70;99.90;;;;;;5030155;28;20068;-67
2024/04/04 06:41:11;;;;;;;1999.90;999.90;;;14.80;99.90;;;;;;5029084;28;20033;-74
2024/04/04 06:43:37;;;;;;;1999.90;999.90;;;14.90;99.90;;;;;;5024160;28;20103;-68
2024/04/04 06:46:03;;;;;;;1999.90;999.90;;;14.90;99.90;;;;;;5028458;28;20496;-67
2024/04/04 06:48:28;;;;;;;1999.90;999.90;;;14.90;99.90;;;;;;5030693;28;20064;-73
2024/04/04 06:50:54;;;;;;;1999.90;999.90;;;15.00;99.90;;;;;;5031788;28;20477;-67
2024/04/04 06:53:19;;;;;;;1999.90;999.90;;;15.00;99.90;;;;;;5028884;28;20475;-69
2024/04/04 06:55:45;;;;;;;1999.90;999.90;;;15.00;99.90;;;;;;5026029;28;20025;-73
2024/04/04 06:58:13;;;;;;;1999.90;999.90;;;15.10;99.90;;;;;;5028113;28;20034;-70
2024/04/04 07:00:39;;;;;;;1999.90;999.90;;;15.10;99.90;;;;;;5024917;28;20017;-69
2024/04/04 07:03:05;;;;;;;1999.90;999.90;;;15.20;99.90;;;;;;5027537;28;20459;-68
2024/04/04 07:05:30;;;;;;;1999.90;999.90;;;15.30;99.90;;;;;;5031191;28;20063;-68
2024/04/04 07:07:56;;;;;;;1999.90;999.90;;;15.40;99.90;;;;;;5045489;28;20044;-73
2024/04/04 07:10:22;;;;;;;1999.90;999.90;;;15.40;99.90;;;;;;5038094;28;20061;-72
2024/04/04 07:12:47;;;;;;;1999.90;999.90;;;15.40;99.90;;;;;;5041017;28;20399;-68
2024/04/04 07:15:13;;;;;;;1999.90;999.90;;;15.50;99.90;;;;;;5035728;28;20540;-70
2024/04/04 07:17:39;;;;;;;1999.90;999.90;;;15.50;99.90;;;;;;5032875;28;20104;-68
2024/04/04 07:20:05;;;;;;;1999.90;999.90;;;16.00;99.90;;;;;;5032647;28;20492;-74
2024/04/04 07:22:31;;;;;;;1999.90;999.90;;;16.30;99.90;;;;;;5033350;28;20443;-74
2024/04/04 07:24:57;;;;;;;1999.90;999.90;;;16.40;99.90;;;;;;5030377;28;20095;-68
2024/04/04 07:27:25;;;;;;;1999.90;999.90;;;16.10;99.90;;;;;;5031387;28;20025;-68
2024/04/04 07:29:54;;;;;;;1999.90;999.90;;;16.20;99.90;;;;;;5032597;28;20068;-68
2024/04/04 07:32:19;;;;;;;1999.90;999.90;;;16.10;99.90;;;;;;5033254;28;20516;-68
2024/04/04 07:34:45;;;;;;;1999.90;999.90;;;16.00;99.90;;;;;;5032620;28;20052;-74
2024/04/04 07:37:11;;;;;;;1999.90;999.90;;;15.90;99.90;;;;;;5032251;28;20071;-72
2024/04/04 07:39:36;;;;;;;1999.90;999.90;;;16.10;99.90;;;;;;5033081;28;20033;-72
2024/04/04 07:42:03;;;;;;;1999.90;999.90;;;16.00;99.90;;;;;;5045516;28;20033;-73
2024/04/04 07:44:29;;;;;;;1999.90;999.90;;;15.90;99.90;;;;;;5052876;28;20454;-68
2024/04/04 07:46:55;;;;;;;1999.90;999.90;;;15.90;99.90;;;;;;5040615;28;20109;-73
2024/04/04 07:49:20;;;;;;;1999.90;999.90;;;15.90;99.90;;;;;;5032040;28;20037;-74
2024/04/04 07:51:47;;;;;;;1999.90;999.90;;;15.80;99.90;;;;;;5032087;28;20025;-69
2024/04/04 07:54:13;;;;;;;1999.90;999.90;;;15.70;99.90;;;;;;5031410;28;20570;-68
2024/04/04 07:56:39;;;;;;;1999.90;999.90;;;15.70;99.90;;;;;;5032050;28;20156;-68
2024/04/04 07:59:04;;;;;;;1999.90;999.90;;;15.70;99.90;;;;;;5012994;28;20036;-74
2024/04/04 08:01:30;;;;;;;1999.90;999.90;;;15.80;99.90;;;;;;5030585;28;20025;-67
2024/04/04 08:03:56;;;;;;;1999.90;999.90;;;15.90;99.90;;;;;;5032017;28;20119;-74
2024/04/04 08:06:21;;;;;;;1999.90;999.90;;;16.10;99.90;;;;;;5029539;28;20021;-68
2024/04/04 08:08:47;;;;;;;1999.90;999.90;;;16.30;99.90;;;;;;5029111;28;20030;-68
2024/04/04 08:11:14;;;;;;;1999.90;999.90;;;16.20;99.90;;;;;;5031366;28;20018;-68
2024/04/04 08:13:41;;;;;;;1999.90;999.90;;;16.10;99.90;;;;;;5047269;28;20087;-73
2024/04/04 08:16:08;;;;;;;1999.90;999.90;;;16.00;99.90;;;;;;5033632;28;20032;-73
2024/04/04 08:18:33;;;;;;;1999.90;999.90;;;15.80;99.90;;;;;;5031934;28;20068;-73
2024/04/04 08:20:59;;;;;;;1999.90;999.90;;;15.90;99.90;;;;;;5030974;28;20411;-74
2024/04/04 08:23:25;;;;;;;1999.90;999.90;;;16.20;99.90;;;;;;5030855;28;20052;-68
2024/04/04 08:25:58;;;;;;;1999.90;999.90;;;16.10;99.90;;;;;;5034219;28;20031;-73
2024/04/04 08:28:27;;;;;;;;;;;16.10;99.90;;;;;;5041622;28;20049;-73
2024/04/04 08:30:59;;;;;;;1999.90;999.90;;;16.00;99.90;;;;;;5031608;28;20391;-73
2024/04/04 08:33:25;;;;;;;1999.90;999.90;;;15.90;99.90;;;;;;5029758;28;20040;-68
2024/04/04 08:35:51;;;;;;;1999.90;999.90;;;15.90;99.90;;;;;;5030126;28;20104;-73
2024/04/04 08:38:17;;;;;;;1999.90;999.90;;;15.90;99.90;;;;;;5029653;28;20029;-73
2024/04/04 08:40:43;;;;;;;1999.90;999.90;;;16.20;99.90;;;;;;5030703;28;20036;-73
2024/04/04 08:43:10;;;;;;;1999.90;999.90;;;17.20;99.90;;;;;;5027512;28;20084;-74
2024/04/04 08:45:47;;;;;;;1999.90;999.90;;;17.10;99.90;;;;;;5030627;28;20397;-73
2024/04/04 08:48:22;;;;;;;1999.90;999.90;;;16.80;99.90;;;;;;5030122;28;20037;-68
2024/04/04 08:50:48;;;;;;;1999.90;999.90;;;17.50;99.90;;;;;;5032379;28;20440;-73
2024/04/04 08:53:22;;;;;;;1999.90;999.90;;;17.40;99.90;;;;;;5042465;28;20120;-74
2024/04/04 08:55:50;;;;;;;1999.90;999.90;;;19.90;99.90;;;;;;5033751;28;20479;-68
2024/04/04 08:58:16;;;;;;;1999.90;999.90;;;20.70;99.90;;;;;;5045202;28;20592;-73
2024/04/04 09:00:43;;;;;;;1999.90;999.90;;;21.50;99.90;;;;;;5030431;28;20056;-73
2024/04/04 09:03:09;;;;;;;1999.90;999.90;;;20.50;99.90;;;;;;5028602;28;20048;-69
2024/04/04 09:05:35;;;;;;;1999.90;999.90;;;21.60;99.90;;;;;;5038599;28;20036;-68
2024/04/04 09:08:04;;;;;;;1999.90;999.90;;;20.00;99.90;;;;;;5037243;28;20033;-68
2024/04/04 09:10:30;;;;;;;1999.90;999.90;;;19.00;99.90;;;;;;5025924;28;20512;-68
2024/04/04 09:13:03;;;;;;;1999.90;999.90;;;18.50;99.90;;;;;;5038087;28;20083;-74
2024/04/04 09:15:28;;;;;;;1999.90;999.90;;;18.60;99.90;;;;;;5044467;28;20035;-73
2024/04/04 09:18:12;;;;;;;1999.90;999.90;;;19.00;99.90;;;;;;5033891;28;20124;-68
2024/04/04 09:20:41;;;;;;;1999.90;999.90;;;19.00;99.90;;;;;;5018975;28;20488;-70
2024/04/04 09:23:09;;;;;;;1999.90;999.90;;;18.70;99.90;;;;;;5029382;28;20021;-69
2024/04/04 09:25:37;;;;;;;1999.90;999.90;;;18.70;99.90;;;;;;5032171;28;20512;-68
2024/04/04 09:28:03;;;;;;;1999.90;999.90;;;18.10;99.90;;;;;;5034763;28;20057;-72
2024/04/04 09:30:32;;;;;;;1999.90;999.90;;;18.40;99.90;;;;;;5037930;28;20029;-73
2024/04/04 09:32:58;;;;;;;1999.90;999.90;;;18.60;99.90;;;;;;5038244;28;20025;-74
2024/04/04 09:35:24;;;;;;;1999.90;999.90;;;18.70;99.90;;;;;;5043548;28;20028;-74
2024/04/04 09:37:50;;;;;;;1999.90;999.90;;;18.90;99.90;;;;;;5032591;28;20029;-68
2024/04/04 09:40:17;;;;;;;1999.90;999.90;;;18.80;99.90;;;;;;5032909;28;21110;-70
2024/04/04 09:42:44;;;;;;;1999.90;999.90;;;18.60;99.90;;;;;;5031095;28;20397;-73
2024/04/04 09:45:11;;;;;;;1999.90;999.90;;;18.90;99.90;;;;;;5033859;28;20116;-74
2024/04/04 09:47:46;;;;;;;1999.90;999.90;;;18.80;99.90;;;;;;5028080;28;20029;-74
2024/04/04 09:50:14;;;;;;;1999.90;999.90;;;18.90;99.90;;;;;;5028740;28;20025;-69
2024/04/04 09:52:40;;;;;;;1999.90;999.90;;;18.70;99.90;;;;;;5031023;28;20432;-69
2024/04/04 09:55:11;;;;;;;1999.90;999.90;;;18.60;99.90;;;;;;5025518;28;20029;-68
2024/04/04 09:57:40;;;;;;;1999.90;999.90;;;18.60;99.90;;;;;;5029991;28;20029;-73
2024/04/04 10:00:14;;;;;;;1999.90;999.90;;;18.80;99.90;;;;;;5024193;28;20029;-73
2024/04/04 10:02:47;;;;;;;1999.90;999.90;;;18.40;99.90;;;;;;5030831;28;20029;-73
2024/04/04 10:05:18;;;;;;;1999.90;999.90;;;18.50;99.90;;;;;;5031639;28;20522;-72
2024/04/04 10:07:44;;;;;;;1999.90;999.90;;;18.20;99.90;;;;;;5034910;28;20120;-70
2024/04/04 10:10:21;;;;;;;1999.90;999.90;;;18.30;99.90;;;;;;5035916;28;20172;-68
2024/04/04 10:12:51;;;;;;;1999.90;999.90;;;18.40;99.90;;;;;;5028034;28;20037;-73
2024/04/04 10:15:18;;;;;;;1999.90;999.90;;;18.40;99.90;;;;;;5033625;28;20018;-69
2024/04/04 10:17:54;;;;;;;1999.90;999.90;;;18.30;99.90;;;;;;5026175;28;20341;-68
2024/04/04 10:20:23;;;;;;;1999.90;999.90;;;18.20;99.90;;;;;;5028166;28;20030;-68
2024/04/04 10:23:05;;;;;;;1999.90;999.90;;;18.30;99.90;;;;;;5029714;28;20060;-68
2024/04/04 10:25:32;;;;;;;1999.90;999.90;;;18.00;99.90;;;;;;5029405;28;20563;-73
2024/04/04 10:28:02;;;;;;;1999.90;999.90;;;18.20;99.90;;;;;;5044203;28;20032;-68
2024/04/04 10:30:28;;;;;;;1999.90;999.90;;;18.20;99.90;;;;;;5026814;28;20056;-69
2024/04/04 10:33:03;;;;;;;1999.90;999.90;;;18.10;99.90;;;;;;5031020;28;20075;-68
2024/04/04 10:35:29;;;;;;;1999.90;999.90;;;18.20;99.90;;;;;;5036734;28;20125;-73
2024/04/04 10:38:05;;;;;;;1999.90;999.90;;;18.10;99.90;;;;;;5043630;28;20104;-72
2024/04/04 10:40:31;;;;;;;1999.90;999.90;;;17.90;99.90;;;;;;5038434;28;20578;-68
2024/04/04 10:42:57;;;;;;;1999.90;999.90;;;18.10;99.90;;;;;;5040343;28;20104;-68
2024/04/04 10:45:24;;;;;;;1999.90;999.90;;;17.90;99.90;;;;;;5045874;28;20036;-72
2024/04/04 10:47:57;;;;;;;1999.90;999.90;;;17.60;99.90;;;;;;5035458;28;20029;-72
2024/04/04 10:50:26;;;;;;;1999.90;999.90;;;17.60;99.90;;;;;;5039660;28;20024;-73
2024/04/04 10:52:53;;;;;;;1999.90;999.90;;;17.60;99.90;;;;;;5025489;28;20029;-68
2024/04/04 10:55:19;;;;;;;1999.90;999.90;;;17.40;99.90;;;;;;5029259;28;20048;-69
2024/04/04 10:57:51;;;;;;;1999.90;999.90;;;17.60;99.90;;;;;;5034301;28;20068;-68
2024/04/04 11:00:19;;;;;;;1999.90;999.90;;;17.50;99.90;;;;;;5030166;28;20053;-68
2024/04/04 11:02:46;;;;;;;1999.90;999.90;;;17.30;99.90;;;;;;5027367;28;20033;-73
2024/04/04 11:05:12;;;;;;;1999.90;999.90;;;17.00;99.90;;;;;;5027416;28;20444;-72
2024/04/04 11:07:42;;;;;;;1999.90;999.90;;;16.80;99.90;;;;;;5029788;28;20068;-68
2024/04/04 11:10:08;;;;;;;1999.90;999.90;;;16.40;99.90;;;;;;5026189;28;20048;-67
2024/04/04 11:12:34;;;;;;;1999.90;999.90;;;16.30;99.90;;;;;;5030558;28;20021;-67
2024/04/04 11:15:00;;;;;;;1999.90;999.90;;;16.10;99.90;;;;;;5029518;28;20532;-71
2024/04/04 11:17:26;;;;;;;1999.90;999.90;;;15.80;99.90;;;;;;5030289;28;20025;-73
2024/04/04 11:20:05;;;;;;;1999.90;999.90;;;15.70;99.90;;;;;;5030505;28;20041;-73
2024/04/04 11:22:37;;;;;;;1999.90;999.90;;;15.80;99.90;;;;;;5028536;28;20029;-68
2024/04/04 11:25:05;;;;;;;1999.90;999.90;;;15.80;99.90;;;;;;5029460;28;20037;-72
2024/04/04 11:27:31;;;;;;;1999.90;999.90;;;15.90;99.90;;;;;;5031260;28;20638;-73
2024/04/04 11:29:57;;;;;;;1999.90;999.90;;;16.10;99.90;;;;;;5032058;28;20030;-72
2024/04/04 11:32:23;;;;;;;1999.90;999.90;;;16.40;99.90;;;;;;5036740;28;20527;-68
2024/04/04 11:34:48;;;;;;;1999.90;999.90;;;16.20;99.90;;;;;;5026921;28;20049;-72
2024/04/04 11:37:14;;;;;;;1999.90;999.90;;;16.00;99.90;;;;;;5042895;28;20029;-68
2024/04/04 11:39:39;;;;;;;1999.90;999.90;;;15.60;99.90;;;;;;5035299;28;20025;-73
2024/04/04 11:42:06;;;;;;;1999.90;999.90;;;15.70;99.90;;;;;;5038192;28;20059;-73
2024/04/04 11:44:31;;;;;;;1999.90;999.90;;;15.80;99.90;;;;;;5031610;28;20037;-69
2024/04/04 11:46:57;;;;;;;1999.90;999.90;;;15.80;99.90;;;;;;5039055;28;20028;-73
2024/04/04 11:49:23;;;;;;;1999.90;999.90;;;15.90;99.90;;;;;;5037337;28;20484;-68
2024/04/04 11:51:49;;;;;;;1999.90;999.90;;;16.10;99.90;;;;;;5031858;28;20061;-68
2024/04/04 11:54:15;;;;;;;1999.90;999.90;;;16.50;99.90;;;;;;5039500;28;20047;-68
2024/04/04 11:56:41;;;;;;;1999.90;999.90;;;16.60;99.90;;;;;;5042946;28;20033;-68